createdAt,value
2018-12-25T00:01:58.727Z,9.33
2018-12-25T00:04:26.576Z,9.33
2018-12-25T00:06:54.439Z,10.57
2018-12-25T00:09:22.449Z,9.57
2018-12-25T00:11:50.550Z,9.30
2018-12-25T00:14:19.545Z,10.10
2018-12-25T00:16:47.334Z,10.30
2018-12-25T00:19:15.857Z,7.83
2018-12-25T00:21:46.814Z,9.20
2018-12-25T00:24:14.764Z,9.00
2018-12-25T00:26:42.848Z,9.10
2018-12-25T00:29:10.925Z,8.67
2018-12-25T00:31:39.795Z,10.60
2018-12-25T00:34:10.716Z,9.50
2018-12-25T00:36:41.083Z,10.63
2018-12-25T00:39:16.775Z,8.17
2018-12-25T00:41:48.648Z,8.80
2018-12-25T00:44:17.077Z,9.07
2018-12-25T00:46:46.805Z,9.10
2018-12-25T00:49:15.793Z,8.80
2018-12-25T00:51:52.968Z,10.77
2018-12-25T00:54:25.646Z,9.00
2018-12-25T00:56:57.849Z,9.07
2018-12-25T00:59:30.407Z,10.07
2018-12-25T01:02:02.289Z,9.40
2018-12-25T01:04:30.833Z,8.80
2018-12-25T01:06:59.125Z,9.87
2018-12-25T01:09:29.718Z,9.60
2018-12-25T01:11:57.295Z,9.17
2018-12-25T01:14:24.901Z,9.00
2018-12-25T01:16:52.498Z,7.90
2018-12-25T01:19:23.443Z,7.43
2018-12-25T01:21:50.126Z,8.40
2018-12-25T01:24:17.879Z,7.93
2018-12-25T01:26:45.818Z,9.27
2018-12-25T01:29:16.893Z,9.63
2018-12-25T01:31:45.077Z,9.40
2018-12-25T01:34:12.984Z,9.43
2018-12-25T01:36:40.632Z,10.23
2018-12-25T01:39:11.791Z,9.73
2018-12-25T01:41:40.848Z,12.00
2018-12-25T01:44:09.380Z,11.97
2018-12-25T01:46:37.235Z,13.03
2018-12-25T01:49:07.265Z,13.53
2018-12-25T01:51:35.139Z,15.70
2018-12-25T01:54:03.006Z,13.23
2018-12-25T01:56:30.658Z,13.93
2018-12-25T01:58:58.599Z,13.70
2018-12-25T02:01:26.450Z,13.17
2018-12-25T02:03:54.324Z,14.20
2018-12-25T02:06:22.070Z,13.77
2018-12-25T02:08:49.792Z,13.70
2018-12-25T02:11:18.128Z,14.70
2018-12-25T02:13:49.563Z,14.13
2018-12-25T02:16:17.778Z,12.63
2018-12-25T02:18:45.304Z,13.90
2018-12-25T02:21:13.198Z,15.00
2018-12-25T02:23:40.946Z,14.50
2018-12-25T02:26:08.776Z,14.23
2018-12-25T02:28:36.541Z,11.73
2018-12-25T02:31:04.384Z,12.47
2018-12-25T02:33:32.086Z,12.43
2018-12-25T02:36:00.085Z,11.37
2018-12-25T02:38:27.938Z,12.10
2018-12-25T02:40:58.242Z,12.60
2018-12-25T02:43:25.953Z,12.30
2018-12-25T02:45:53.811Z,13.17
2018-12-25T02:48:21.909Z,13.30
2018-12-25T02:50:49.431Z,13.93
2018-12-25T02:53:17.152Z,13.30
2018-12-25T02:55:44.889Z,12.83
2018-12-25T02:58:12.685Z,14.83
2018-12-25T03:00:40.855Z,16.47
2018-12-25T03:03:08.724Z,17.47
2018-12-25T03:05:36.470Z,15.73
2018-12-25T03:08:04.134Z,13.63
2018-12-25T03:10:32.160Z,12.67
2018-12-25T03:12:59.788Z,12.87
2018-12-25T03:15:27.561Z,17.20
2018-12-25T03:17:55.717Z,14.33
2018-12-25T03:20:23.570Z,13.93
2018-12-25T03:22:51.723Z,16.43
2018-12-25T03:25:19.423Z,16.40
2018-12-25T03:27:47.078Z,15.20
2018-12-25T03:30:14.910Z,15.60
2018-12-25T03:32:42.675Z,14.53
2018-12-25T03:35:10.485Z,13.87
2018-12-25T03:37:38.035Z,14.27
2018-12-25T03:40:06.584Z,12.90
2018-12-25T03:42:34.472Z,14.33
2018-12-25T03:45:02.234Z,13.43
2018-12-25T03:47:30.120Z,16.50
2018-12-25T03:49:57.684Z,18.83
2018-12-25T03:52:25.223Z,16.37
2018-12-25T03:54:52.877Z,20.70
2018-12-25T03:57:21.196Z,14.80
2018-12-25T03:59:48.757Z,15.17
2018-12-25T04:02:16.457Z,13.47
2018-12-25T04:04:44.080Z,15.67
2018-12-25T04:07:11.921Z,14.33
2018-12-25T04:09:39.715Z,15.67
2018-12-25T04:12:07.492Z,17.20
2018-12-25T04:14:35.408Z,13.73
2018-12-25T04:17:03.179Z,13.80
2018-12-25T04:19:31.384Z,14.00
2018-12-25T04:21:59.321Z,14.17
2018-12-25T04:24:27.664Z,14.77
2018-12-25T04:26:55.306Z,14.03
2018-12-25T04:29:23.023Z,13.83
2018-12-25T04:31:50.828Z,12.87
2018-12-25T04:34:18.680Z,14.43
2018-12-25T04:36:46.389Z,14.80
2018-12-25T04:39:14.131Z,15.00
2018-12-25T04:41:41.933Z,16.03
2018-12-25T04:44:09.710Z,15.23
2018-12-25T04:46:37.531Z,15.50
2018-12-25T04:49:05.378Z,15.93
2018-12-25T04:51:33.209Z,15.67
2018-12-25T04:54:01.313Z,14.57
2018-12-25T04:56:29.015Z,15.90
2018-12-25T04:58:56.905Z,13.60
2018-12-25T05:01:24.601Z,15.00
2018-12-25T05:03:52.401Z,14.00
2018-12-25T05:06:20.093Z,15.27
2018-12-25T05:08:47.820Z,16.17
2018-12-25T05:11:15.606Z,15.27
2018-12-25T05:13:43.817Z,13.93
2018-12-25T05:16:11.416Z,14.50
2018-12-25T05:18:39.322Z,14.20
2018-12-25T05:21:07.243Z,13.70
2018-12-25T05:23:35.945Z,12.93
2018-12-25T05:26:03.816Z,12.53
2018-12-25T05:28:32.074Z,13.30
2018-12-25T05:30:59.700Z,13.53
2018-12-25T05:33:27.500Z,13.40
2018-12-25T05:35:55.360Z,13.23
2018-12-25T05:38:22.937Z,13.47
2018-12-25T05:40:50.579Z,12.30
2018-12-25T05:43:18.263Z,13.63
2018-12-25T05:45:45.906Z,12.23
2018-12-25T05:48:13.623Z,11.90
2018-12-25T05:50:46.543Z,11.50
2018-12-25T05:53:14.151Z,12.43
2018-12-25T05:55:41.938Z,14.10
2018-12-25T05:58:09.791Z,12.00
2018-12-25T06:00:37.306Z,13.47
2018-12-25T06:03:05.017Z,13.73
2018-12-25T06:05:32.904Z,11.50
2018-12-25T06:08:00.609Z,12.43
2018-12-25T06:10:28.415Z,10.90
2018-12-25T06:12:56.180Z,11.07
2018-12-25T06:15:24.038Z,11.40
2018-12-25T06:17:51.738Z,11.23
2018-12-25T06:20:19.409Z,13.03
2018-12-25T06:22:47.083Z,13.73
2018-12-25T06:25:16.066Z,13.60
2018-12-25T06:27:45.897Z,14.30
2018-12-25T06:30:13.428Z,12.70
2018-12-25T06:32:41.266Z,13.03
2018-12-25T06:35:09.034Z,12.40
2018-12-25T06:37:36.696Z,14.43
2018-12-25T06:40:05.069Z,14.37
2018-12-25T06:42:32.894Z,12.57
2018-12-25T06:45:00.743Z,12.57
2018-12-25T06:47:28.593Z,11.73
2018-12-25T06:49:56.634Z,11.27
2018-12-25T06:52:24.382Z,14.23
2018-12-25T06:54:52.373Z,12.10
2018-12-25T06:57:20.773Z,11.67
2018-12-25T06:59:51.403Z,12.03
2018-12-25T07:02:19.503Z,12.00
2018-12-25T07:04:47.399Z,12.30
2018-12-25T07:07:15.180Z,13.77
2018-12-25T07:09:43.306Z,13.03
2018-12-25T07:12:13.135Z,13.60
2018-12-25T07:14:41.119Z,14.00
2018-12-25T07:17:09.286Z,13.93
2018-12-25T07:19:37.192Z,12.90
2018-12-25T07:22:07.815Z,12.87
2018-12-25T07:24:43.159Z,12.63
2018-12-25T07:27:17.893Z,11.90
2018-12-25T07:29:51.550Z,14.37
2018-12-25T07:32:23.432Z,14.47
2018-12-25T07:35:00.060Z,12.07
2018-12-25T07:37:28.273Z,12.67
2018-12-25T07:40:00.947Z,13.27
2018-12-25T07:42:28.536Z,14.37
2018-12-25T07:44:56.957Z,13.10
2018-12-25T07:47:24.424Z,14.67
2018-12-25T07:49:53.004Z,13.57
2018-12-25T07:52:22.872Z,14.80
2018-12-25T07:54:50.452Z,16.40
2018-12-25T07:57:20.078Z,16.93
2018-12-25T07:59:47.561Z,14.30
2018-12-25T08:02:15.351Z,14.40
2018-12-25T08:04:43.345Z,14.37
2018-12-25T08:07:16.070Z,13.20
2018-12-25T08:09:43.653Z,14.10
2018-12-25T08:12:12.327Z,15.20
2018-12-25T08:14:39.956Z,15.97
2018-12-25T08:17:07.474Z,16.67
2018-12-25T08:19:35.968Z,16.80
2018-12-25T08:22:07.273Z,15.43
2018-12-25T08:24:34.869Z,15.43
2018-12-25T08:27:02.470Z,14.67
2018-12-25T08:29:39.244Z,16.13
2018-12-25T08:32:07.417Z,13.00
2018-12-25T08:34:34.925Z,11.93
2018-12-25T08:37:02.474Z,13.70
2018-12-25T08:39:30.119Z,13.77
2018-12-25T08:41:57.663Z,14.93
2018-12-25T08:44:25.224Z,12.83
2018-12-25T08:46:52.732Z,14.20
2018-12-25T08:49:20.252Z,14.47
2018-12-25T08:51:47.785Z,16.50
2018-12-25T08:54:15.803Z,14.27
2018-12-25T08:56:43.375Z,16.03
2018-12-25T08:59:11.029Z,14.27
2018-12-25T09:01:39.225Z,16.53
2018-12-25T09:04:07.228Z,14.33
2018-12-25T09:06:34.749Z,14.80
2018-12-25T09:09:05.160Z,15.50
2018-12-25T09:11:32.787Z,17.47
2018-12-25T09:14:00.843Z,16.23
2018-12-25T09:16:28.376Z,17.07
2018-12-25T09:18:55.952Z,15.50
2018-12-25T09:21:23.520Z,16.13
2018-12-25T09:23:51.243Z,15.90
2018-12-25T09:26:18.784Z,16.83
2018-12-25T09:28:46.482Z,15.30
2018-12-25T09:31:14.400Z,14.10
2018-12-25T09:33:42.107Z,15.60
2018-12-25T09:36:10.140Z,15.50
2018-12-25T09:38:40.116Z,16.43
2018-12-25T09:41:07.906Z,16.07
2018-12-25T09:43:35.454Z,15.07
2018-12-25T09:46:03.147Z,14.90
2018-12-25T09:48:31.752Z,18.07
2018-12-25T09:50:59.473Z,17.70
2018-12-25T09:53:27.127Z,15.63
2018-12-25T09:55:54.785Z,15.30
2018-12-25T09:58:22.816Z,15.60
2018-12-25T10:00:50.469Z,16.27
2018-12-25T10:03:18.384Z,17.47
2018-12-25T10:05:46.149Z,17.53
2018-12-25T10:08:13.716Z,16.70
2018-12-25T10:10:44.182Z,15.87
2018-12-25T10:13:11.849Z,17.80
2018-12-25T10:15:39.989Z,15.40
2018-12-25T10:18:07.855Z,16.63
2018-12-25T10:20:35.805Z,14.97
2018-12-25T10:23:04.231Z,18.10
2018-12-25T10:25:32.281Z,17.80
2018-12-25T10:28:00.245Z,15.47
2018-12-25T10:30:28.432Z,16.27
2018-12-25T10:32:56.896Z,16.17
2018-12-25T10:35:24.989Z,16.17
2018-12-25T10:37:53.021Z,15.30
2018-12-25T10:40:20.748Z,14.87
2018-12-25T10:42:48.626Z,13.63
2018-12-25T10:45:16.455Z,16.57
2018-12-25T10:47:44.002Z,15.73
2018-12-25T10:50:12.266Z,16.63
2018-12-25T10:52:40.539Z,13.87
2018-12-25T10:55:08.463Z,14.23
2018-12-25T10:57:36.864Z,15.70
2018-12-25T11:00:08.988Z,15.93
2018-12-25T11:02:37.843Z,15.07
2018-12-25T11:05:06.213Z,15.30
2018-12-25T11:07:34.280Z,16.10
2018-12-25T11:10:02.986Z,15.90
2018-12-25T11:12:30.768Z,15.70
2018-12-25T11:14:58.320Z,12.87
2018-12-25T11:17:26.838Z,14.70
2018-12-25T11:19:54.484Z,14.20
2018-12-25T11:22:39.243Z,14.40
2018-12-25T11:25:14.354Z,14.40
2018-12-25T11:27:42.808Z,14.70
2018-12-25T11:30:10.381Z,15.20
2018-12-25T11:32:38.481Z,14.30
2018-12-25T11:35:08.639Z,15.20
2018-12-25T11:37:36.568Z,14.40
2018-12-25T11:40:05.980Z,13.33
2018-12-25T11:42:33.790Z,12.80
2018-12-25T11:45:02.344Z,13.80
2018-12-25T11:47:31.238Z,13.27
2018-12-25T11:49:59.536Z,11.70
2018-12-25T11:52:28.440Z,11.93
2018-12-25T11:54:56.484Z,11.87
2018-12-25T11:57:24.271Z,12.27
2018-12-25T11:59:51.952Z,14.10
2018-12-25T12:02:20.254Z,11.77
2018-12-25T12:05:22.681Z,13.27
2018-12-25T12:07:50.408Z,11.83
2018-12-25T12:10:21.080Z,11.43
2018-12-25T12:12:52.661Z,13.20
2018-12-25T12:15:22.661Z,13.77
2018-12-25T12:17:50.246Z,13.83
2018-12-25T12:20:21.198Z,11.63
2018-12-25T12:22:52.257Z,12.50
2018-12-25T12:25:20.424Z,11.47
2018-12-25T12:27:48.529Z,11.77
2018-12-25T12:30:19.343Z,12.27
2018-12-25T12:32:47.881Z,12.70
2018-12-25T12:35:15.421Z,13.63
2018-12-25T12:37:43.294Z,13.83
2018-12-25T12:40:11.369Z,14.07
2018-12-25T12:42:39.471Z,13.17
2018-12-25T12:45:07.225Z,12.73
2018-12-25T12:47:38.014Z,13.40
2018-12-25T12:50:07.129Z,14.10
2018-12-25T12:52:45.215Z,12.97
2018-12-25T12:55:07.631Z,11.30
2018-12-25T12:57:36.709Z,13.40
2018-12-25T13:00:05.524Z,11.50
2018-12-25T13:02:34.765Z,13.57
2018-12-25T13:05:08.002Z,12.40
2018-12-25T13:07:35.595Z,11.83
2018-12-25T13:10:03.495Z,12.13
2018-12-25T13:12:31.352Z,13.40
2018-12-25T13:15:09.192Z,13.87
2018-12-25T13:17:36.798Z,12.20
2018-12-25T13:20:04.649Z,13.70
2018-12-25T13:22:32.259Z,14.10
2018-12-25T13:24:59.926Z,13.77
2018-12-25T13:27:27.395Z,13.20
2018-12-25T13:29:55.084Z,15.07
2018-12-25T13:32:27.868Z,13.97
2018-12-25T13:34:55.312Z,14.37
2018-12-25T13:37:22.811Z,16.27
2018-12-25T13:39:51.670Z,13.47
2018-12-25T13:42:19.256Z,12.97
2018-12-25T13:44:47.840Z,12.87
2018-12-25T13:47:16.001Z,14.20
2018-12-25T13:49:43.568Z,14.40
2018-12-25T13:52:11.161Z,13.30
2018-12-25T13:54:38.848Z,14.23
2018-12-25T13:57:06.475Z,12.87
2018-12-25T13:59:34.088Z,13.10
2018-12-25T14:02:01.710Z,13.27
2018-12-25T14:04:29.343Z,14.33
2018-12-25T14:06:57.084Z,14.63
2018-12-25T14:09:24.635Z,13.37
2018-12-25T14:11:52.340Z,15.00
2018-12-25T14:14:20.012Z,13.33
2018-12-25T14:16:47.741Z,13.70
2018-12-25T14:19:15.387Z,14.20
2018-12-25T14:21:42.943Z,15.43
2018-12-25T14:24:10.575Z,14.33
2018-12-25T14:26:38.076Z,14.80
2018-12-25T14:29:05.591Z,13.93
2018-12-25T14:31:33.248Z,13.47
2018-12-25T14:34:00.808Z,15.23
2018-12-25T14:36:28.361Z,14.37
2018-12-25T14:38:55.970Z,16.03
2018-12-25T14:41:23.842Z,14.43
2018-12-25T14:43:51.734Z,14.00
2018-12-25T14:46:19.256Z,16.57
2018-12-25T14:48:46.707Z,14.10
2018-12-25T14:51:15.940Z,15.70
2018-12-25T14:53:43.462Z,16.07
2018-12-25T14:56:10.979Z,17.93
2018-12-25T14:58:38.636Z,15.33
2018-12-25T15:01:06.392Z,13.37
2018-12-25T15:03:33.882Z,14.53
2018-12-25T15:06:01.364Z,15.13
2018-12-25T15:08:29.161Z,14.97
2018-12-25T15:10:56.672Z,15.97
2018-12-25T15:13:24.266Z,16.60
2018-12-25T15:15:51.768Z,15.60
2018-12-25T15:18:19.520Z,15.63
2018-12-25T15:20:46.980Z,18.73
2018-12-25T15:23:14.493Z,14.60
2018-12-25T15:25:41.982Z,15.40
2018-12-25T15:28:09.464Z,17.37
2018-12-25T15:30:37.034Z,17.73
2018-12-25T15:33:04.947Z,17.50
2018-12-25T15:35:32.548Z,16.03
2018-12-25T15:38:00.076Z,16.43
2018-12-25T15:40:27.543Z,14.40
2018-12-25T15:42:55.016Z,19.30
2018-12-25T15:45:22.558Z,16.50
2018-12-25T15:47:50.352Z,16.40
2018-12-25T15:50:18.516Z,16.27
2018-12-25T15:52:46.188Z,15.67
2018-12-25T15:55:13.760Z,15.50
2018-12-25T15:57:41.304Z,18.07
2018-12-25T16:00:13.481Z,15.10
2018-12-25T16:02:41.095Z,16.00
2018-12-25T16:05:08.624Z,14.77
2018-12-25T16:07:36.639Z,16.57
2018-12-25T16:10:04.475Z,16.40
2018-12-25T16:12:32.097Z,17.60
2018-12-25T16:14:59.697Z,18.30
2018-12-25T16:17:27.238Z,16.33
2018-12-25T16:19:54.987Z,16.30
2018-12-25T16:22:22.492Z,26.27
2018-12-25T16:24:50.177Z,18.93
2018-12-25T16:27:17.849Z,33.30
2018-12-25T16:29:45.565Z,18.33
2018-12-25T16:32:13.084Z,17.97
2018-12-25T16:34:42.184Z,21.00
2018-12-25T16:37:10.024Z,20.03
2018-12-25T16:39:37.609Z,19.00
2018-12-25T16:42:05.606Z,18.07
2018-12-25T16:44:33.063Z,18.30
2018-12-25T16:47:00.698Z,17.47
2018-12-25T16:49:28.322Z,18.37
2018-12-25T16:51:56.221Z,17.40
2018-12-25T16:54:25.142Z,17.23
2018-12-25T16:56:52.796Z,17.87
2018-12-25T16:59:20.541Z,17.60
2018-12-25T17:01:50.236Z,20.30
2018-12-25T17:04:18.142Z,19.90
2018-12-25T17:06:50.124Z,19.10
2018-12-25T17:09:18.215Z,20.07
2018-12-25T17:11:48.149Z,19.97
2018-12-25T17:14:15.800Z,17.67
2018-12-25T17:16:43.589Z,18.47
2018-12-25T17:19:11.415Z,18.33
2018-12-25T17:21:42.226Z,18.93
2018-12-25T17:24:09.981Z,18.20
2018-12-25T17:26:38.323Z,22.00
2018-12-25T17:29:08.267Z,21.30
2018-12-25T17:31:48.261Z,20.10
2018-12-25T17:34:22.606Z,20.63
2018-12-25T17:36:58.452Z,20.47
2018-12-25T17:39:38.295Z,21.67
2018-12-25T17:42:06.829Z,17.83
2018-12-25T17:44:36.049Z,19.30
2018-12-25T17:47:08.346Z,19.40
2018-12-25T17:49:51.416Z,19.10
2018-12-25T17:52:29.295Z,18.63
2018-12-25T17:55:02.368Z,18.73
2018-12-25T17:57:29.933Z,16.50
2018-12-25T18:00:03.963Z,21.03
2018-12-25T18:02:34.526Z,20.30
2018-12-25T18:05:21.496Z,21.17
2018-12-25T18:07:49.617Z,20.57
2018-12-25T18:10:27.290Z,20.30
2018-12-25T18:13:06.129Z,18.10
2018-12-25T18:15:41.323Z,19.03
2018-12-25T18:18:37.824Z,20.97
2018-12-25T18:21:28.913Z,23.87
2018-12-25T18:23:56.834Z,20.40
2018-12-25T18:26:25.268Z,22.73
2018-12-25T18:28:52.937Z,20.90
2018-12-25T18:31:20.688Z,18.80
2018-12-25T18:33:48.596Z,20.37
2018-12-25T18:36:18.605Z,18.70
2018-12-25T18:38:46.204Z,22.00
2018-12-25T18:41:13.745Z,22.10
2018-12-25T18:43:41.417Z,19.90
2018-12-25T18:46:10.356Z,20.93
2018-12-25T18:48:38.457Z,23.27
2018-12-25T18:51:15.535Z,22.40
2018-12-25T18:53:50.721Z,23.33
2018-12-25T18:56:20.493Z,24.37
2018-12-25T18:58:48.032Z,29.50
2018-12-25T19:01:15.972Z,21.93
2018-12-25T19:03:43.516Z,21.60
2018-12-25T19:06:11.117Z,21.63
2018-12-25T19:08:38.728Z,22.67
2018-12-25T19:11:06.327Z,23.10
2018-12-25T19:13:33.755Z,24.33
2018-12-25T19:16:01.408Z,23.30
2018-12-25T19:18:28.921Z,22.40
2018-12-25T19:20:56.400Z,23.40
2018-12-25T19:23:24.032Z,22.13
2018-12-25T19:25:52.323Z,28.10
2018-12-25T19:28:20.942Z,23.40
2018-12-25T19:30:48.541Z,22.83
2018-12-25T19:33:16.329Z,24.50
2018-12-25T19:35:43.889Z,23.43
2018-12-25T19:38:12.452Z,21.50
2018-12-25T19:40:39.892Z,22.60
2018-12-25T19:43:09.407Z,23.47
2018-12-25T19:45:36.856Z,22.17
2018-12-25T19:48:04.596Z,22.60
2018-12-25T19:50:32.458Z,22.87
2018-12-25T19:53:02.556Z,20.53
2018-12-25T19:55:50.464Z,21.77
2018-12-25T19:58:20.649Z,21.70
2018-12-25T20:00:49.041Z,23.90
2018-12-25T20:03:21.927Z,19.70
2018-12-25T20:06:34.145Z,22.00
2018-12-25T20:09:35.044Z,25.27
2018-12-25T20:12:36.709Z,24.27
2018-12-25T20:15:23.409Z,22.60
2018-12-25T20:18:32.667Z,20.70
2018-12-25T20:21:49.586Z,22.83
2018-12-25T20:25:02.777Z,19.67
2018-12-25T20:28:13.502Z,20.50
2018-12-25T20:31:23.544Z,22.20
2018-12-25T20:34:25.687Z,20.90
2018-12-25T20:37:32.169Z,21.80
2018-12-25T20:40:52.468Z,22.00
2018-12-25T20:44:16.191Z,23.50
2018-12-25T20:47:43.964Z,20.50
2018-12-25T20:50:55.263Z,22.90
2018-12-25T20:54:31.697Z,22.17
2018-12-25T20:57:36.840Z,23.17
2018-12-25T21:00:22.886Z,20.10
2018-12-25T21:03:38.566Z,22.53
2018-12-25T21:07:00.732Z,19.10
2018-12-25T21:10:10.197Z,21.93
2018-12-25T21:13:11.691Z,21.93
2018-12-25T21:16:21.220Z,20.37
2018-12-25T21:19:30.691Z,22.47
2018-12-25T21:22:24.480Z,22.23
2018-12-25T21:25:28.892Z,21.77
2018-12-25T21:27:55.520Z,19.83
2018-12-25T21:30:26.668Z,21.23
2018-12-25T21:32:57.536Z,22.37
2018-12-25T21:35:25.771Z,18.67
2018-12-25T21:37:55.617Z,20.20
2018-12-25T21:40:27.620Z,21.47
2018-12-25T21:43:17.252Z,23.37
2018-12-25T21:49:20.395Z,20.93
2018-12-25T21:51:55.310Z,21.90
2018-12-25T22:01:29.116Z,19.37
2018-12-25T22:04:32.175Z,18.77
2018-12-25T22:07:17.432Z,19.93
2018-12-25T22:09:54.141Z,19.20
2018-12-25T22:12:30.322Z,20.20
2018-12-25T22:15:00.460Z,18.77
2018-12-25T22:17:28.999Z,19.00
2018-12-25T22:20:06.864Z,19.47
2018-12-25T22:23:05.445Z,22.43
2018-12-25T22:25:39.437Z,21.40
2018-12-25T22:35:37.612Z,18.33
2018-12-25T22:38:14.090Z,20.10
2018-12-25T22:40:48.048Z,18.87
2018-12-25T22:43:26.354Z,20.10
2018-12-25T22:46:01.976Z,20.53
2018-12-25T22:49:11.862Z,19.60
2018-12-25T22:52:34.947Z,17.30
2018-12-25T22:55:15.323Z,17.90
2018-12-25T23:06:10.192Z,17.30
2018-12-25T23:08:44.214Z,17.80
2018-12-25T23:11:32.823Z,17.47
2018-12-25T23:14:12.433Z,18.17
2018-12-25T23:20:57.054Z,20.73
2018-12-25T23:23:50.384Z,20.30
2018-12-25T23:30:43.833Z,21.93
2018-12-25T23:37:04.416Z,21.73
2018-12-25T23:40:18.779Z,19.20
2018-12-25T23:43:44.443Z,21.83
2018-12-25T23:46:41.926Z,22.30
2018-12-25T23:49:37.775Z,19.40
2018-12-25T23:56:34.200Z,20.80
2018-12-25T23:59:25.693Z,20.77
